createdAt,value
2018-06-21T00:01:20.885Z,0.90
2018-06-21T00:03:48.987Z,0.80
2018-06-21T00:06:17.456Z,0.80
2018-06-21T00:08:46.066Z,0.83
2018-06-21T00:11:14.620Z,0.83
2018-06-21T00:13:43.122Z,0.90
2018-06-21T00:16:11.665Z,0.80
2018-06-21T00:18:40.347Z,0.97
2018-06-21T00:21:09.005Z,1.20
2018-06-21T00:23:38.016Z,0.83
2018-06-21T00:26:07.458Z,1.00
2018-06-21T00:28:37.189Z,0.80
2018-06-21T00:31:06.912Z,0.93
2018-06-21T00:33:36.311Z,1.00
2018-06-21T00:36:05.532Z,0.87
2018-06-21T00:38:35.303Z,1.00
2018-06-21T00:41:04.305Z,0.90
2018-06-21T00:43:33.927Z,0.87
2018-06-21T00:46:03.068Z,1.03
2018-06-21T00:48:32.532Z,0.80
2018-06-21T00:51:02.114Z,1.00
2018-06-21T00:53:33.222Z,0.70
2018-06-21T00:56:14.937Z,1.07
2018-06-21T00:58:43.888Z,0.90
2018-06-21T01:01:12.845Z,0.97
2018-06-21T01:03:41.541Z,1.00
2018-06-21T01:06:10.270Z,0.93
2018-06-21T01:08:39.206Z,1.43
2018-06-21T01:11:08.141Z,0.73
2018-06-21T01:13:37.723Z,0.80
2018-06-21T01:16:07.034Z,0.80
2018-06-21T01:18:36.617Z,0.80
2018-06-21T01:21:06.397Z,0.70
2018-06-21T01:23:35.715Z,0.90
2018-06-21T01:26:05.231Z,1.03
2018-06-21T01:28:34.447Z,0.93
2018-06-21T01:31:03.395Z,0.60
2018-06-21T01:33:32.353Z,1.00
2018-06-21T01:36:00.879Z,0.77
2018-06-21T01:38:29.375Z,0.93
2018-06-21T01:40:57.833Z,0.70
2018-06-21T01:43:26.400Z,0.80
2018-06-21T01:45:54.855Z,0.80
2018-06-21T01:48:23.294Z,1.00
2018-06-21T01:50:51.805Z,0.80
2018-06-21T01:53:20.310Z,1.00
2018-06-21T01:55:48.767Z,0.90
2018-06-21T01:58:17.293Z,0.80
2018-06-21T02:00:45.752Z,0.77
2018-06-21T02:03:14.320Z,1.10
2018-06-21T02:05:42.997Z,0.80
2018-06-21T02:08:11.477Z,0.93
2018-06-21T02:10:39.897Z,0.90
2018-06-21T02:13:08.533Z,0.90
2018-06-21T02:15:37.071Z,1.03
2018-06-21T02:18:05.557Z,0.90
2018-06-21T02:20:34.045Z,0.90
2018-06-21T02:23:02.549Z,0.90
2018-06-21T02:25:31.006Z,0.93
2018-06-21T02:27:59.649Z,0.80
2018-06-21T02:30:28.137Z,0.80
2018-06-21T02:32:56.656Z,0.80
2018-06-21T02:35:25.164Z,1.23
2018-06-21T02:37:54.016Z,0.80
2018-06-21T02:40:23.678Z,0.80
2018-06-21T02:42:52.134Z,0.97
2018-06-21T02:45:20.697Z,1.03
2018-06-21T02:47:49.184Z,1.10
2018-06-21T02:50:18.253Z,1.13
2018-06-21T02:52:46.936Z,1.20
2018-06-21T02:55:15.605Z,1.00
2018-06-21T02:57:44.100Z,1.00
2018-06-21T03:00:12.536Z,0.80
2018-06-21T03:02:41.076Z,0.73
2018-06-21T03:05:09.566Z,0.77
2018-06-21T03:07:38.020Z,0.70
2018-06-21T03:10:06.425Z,0.70
2018-06-21T03:12:35.014Z,0.70
2018-06-21T03:15:03.733Z,0.80
2018-06-21T03:17:32.271Z,0.90
2018-06-21T03:20:00.746Z,0.80
2018-06-21T03:22:29.194Z,0.83
2018-06-21T03:24:57.608Z,0.90
2018-06-21T03:27:26.007Z,0.90
2018-06-21T03:29:54.400Z,0.80
2018-06-21T03:32:22.867Z,1.00
2018-06-21T03:34:51.384Z,0.90
2018-06-21T03:37:19.833Z,0.80
2018-06-21T03:39:47.952Z,0.80
2018-06-21T03:42:16.366Z,0.77
2018-06-21T03:44:44.905Z,0.80
2018-06-21T03:47:13.425Z,0.90
2018-06-21T03:49:41.937Z,0.80
2018-06-21T03:52:10.816Z,0.67
2018-06-21T03:54:39.230Z,0.90
2018-06-21T03:57:07.659Z,0.80
2018-06-21T03:59:36.102Z,0.80
2018-06-21T04:02:04.845Z,0.80
2018-06-21T04:04:33.280Z,0.60
2018-06-21T04:07:01.729Z,0.70
2018-06-21T04:09:30.244Z,0.70
2018-06-21T04:11:58.685Z,0.80
2018-06-21T04:14:26.852Z,0.90
2018-06-21T04:16:55.316Z,0.67
2018-06-21T04:19:23.782Z,0.70
2018-06-21T04:21:52.211Z,1.00
2018-06-21T04:24:20.599Z,0.90
2018-06-21T04:26:49.441Z,0.70
2018-06-21T04:29:18.031Z,0.80
2018-06-21T04:31:46.829Z,0.80
2018-06-21T04:34:15.301Z,0.90
2018-06-21T04:36:44.016Z,0.80
2018-06-21T04:39:12.623Z,1.00
2018-06-21T04:41:41.873Z,0.70
2018-06-21T04:44:10.357Z,0.70
2018-06-21T04:46:39.205Z,0.80
2018-06-21T04:49:08.089Z,0.80
2018-06-21T04:51:36.896Z,0.90
2018-06-21T04:54:05.853Z,0.70
2018-06-21T04:56:34.476Z,1.03
2018-06-21T04:59:03.557Z,0.70
2018-06-21T05:01:32.576Z,0.67
2018-06-21T05:04:02.488Z,0.90
2018-06-21T05:06:31.061Z,0.73
2018-06-21T05:08:59.956Z,0.67
2018-06-21T05:11:29.220Z,0.90
2018-06-21T05:13:58.478Z,0.70
2018-06-21T05:16:27.388Z,0.70
2018-06-21T05:18:56.242Z,0.70
2018-06-21T05:21:25.048Z,0.90
2018-06-21T05:23:53.728Z,0.97
2018-06-21T05:26:22.730Z,0.80
2018-06-21T05:28:51.576Z,0.70
2018-06-21T05:31:20.427Z,0.90
2018-06-21T05:33:49.199Z,0.77
2018-06-21T05:36:17.759Z,0.90
2018-06-21T05:38:46.606Z,0.83
2018-06-21T05:41:15.126Z,0.80
2018-06-21T05:43:43.685Z,0.87
2018-06-21T05:46:12.188Z,0.60
2018-06-21T05:48:40.634Z,0.90
2018-06-21T05:51:09.210Z,0.60
2018-06-21T05:53:37.926Z,0.80
2018-06-21T05:56:07.114Z,0.90
2018-06-21T05:58:35.869Z,0.60
2018-06-21T06:01:04.819Z,0.70
2018-06-21T06:03:33.869Z,1.03
2018-06-21T06:06:03.503Z,0.73
2018-06-21T06:08:32.465Z,0.80
2018-06-21T06:11:02.036Z,0.67
2018-06-21T06:13:31.665Z,0.67
2018-06-21T06:16:00.253Z,0.80
2018-06-21T06:18:28.788Z,0.80
2018-06-21T06:20:57.641Z,0.70
2018-06-21T06:23:26.428Z,0.70
2018-06-21T06:25:55.169Z,0.83
2018-06-21T06:28:24.340Z,0.90
2018-06-21T06:30:52.836Z,0.70
2018-06-21T06:33:21.345Z,0.80
2018-06-21T06:35:51.378Z,0.77
2018-06-21T06:38:20.324Z,0.77
2018-06-21T06:40:48.721Z,0.80
2018-06-21T06:43:18.001Z,0.83
2018-06-21T06:45:46.378Z,0.67
2018-06-21T06:48:14.766Z,0.80
2018-06-21T06:50:43.218Z,0.60
2018-06-21T06:53:11.752Z,0.80
2018-06-21T06:55:40.285Z,0.77
2018-06-21T06:58:08.874Z,0.67
2018-06-21T07:00:37.261Z,0.63
2018-06-21T07:03:05.674Z,0.60
2018-06-21T07:05:34.045Z,0.90
2018-06-21T07:08:02.431Z,0.90
2018-06-21T07:10:31.520Z,0.77
2018-06-21T07:13:00.691Z,0.90
2018-06-21T07:15:29.077Z,0.90
2018-06-21T07:17:57.831Z,1.00
2018-06-21T07:20:27.508Z,0.70
2018-06-21T07:22:56.286Z,0.97
2018-06-21T07:25:26.310Z,1.00
2018-06-21T07:27:56.643Z,0.60
2018-06-21T07:30:24.949Z,0.87
2018-06-21T07:32:54.885Z,0.70
2018-06-21T07:35:23.395Z,0.80
2018-06-21T07:37:52.261Z,0.80
2018-06-21T07:40:22.860Z,1.20
2018-06-21T07:42:52.994Z,0.80
2018-06-21T07:45:22.559Z,0.77
2018-06-21T07:47:51.111Z,0.80
2018-06-21T07:50:19.598Z,0.97
2018-06-21T07:52:48.014Z,0.87
2018-06-21T07:55:16.542Z,0.77
2018-06-21T07:57:44.976Z,0.80
2018-06-21T08:00:13.442Z,0.87
2018-06-21T08:02:41.854Z,0.90
2018-06-21T08:05:10.423Z,0.90
2018-06-21T08:07:39.190Z,0.90
2018-06-21T08:10:07.639Z,0.73
2018-06-21T08:12:36.107Z,0.97
2018-06-21T08:15:04.522Z,0.80
2018-06-21T08:17:32.958Z,0.70
2018-06-21T08:20:01.882Z,0.80
2018-06-21T08:22:30.480Z,0.80
2018-06-21T08:24:59.519Z,0.90
2018-06-21T08:27:27.917Z,0.80
2018-06-21T08:29:56.788Z,1.00
2018-06-21T08:32:25.505Z,0.70
2018-06-21T08:34:53.940Z,0.80
2018-06-21T08:37:23.846Z,0.90
2018-06-21T08:39:52.602Z,0.90
2018-06-21T08:42:21.552Z,1.07
2018-06-21T08:44:49.945Z,1.00
2018-06-21T08:47:18.317Z,0.83
2018-06-21T08:49:46.709Z,1.07
2018-06-21T08:52:15.130Z,1.00
2018-06-21T08:54:43.876Z,0.97
2018-06-21T08:57:12.395Z,1.23
2018-06-21T08:59:41.081Z,1.23
2018-06-21T09:02:09.488Z,1.20
2018-06-21T09:04:38.257Z,1.00
2018-06-21T09:07:06.650Z,0.97
2018-06-21T09:09:35.228Z,1.27
2018-06-21T09:12:03.649Z,1.00
2018-06-21T09:14:32.061Z,1.03
2018-06-21T09:17:00.770Z,1.53
2018-06-21T09:19:29.175Z,1.00
2018-06-21T09:21:57.553Z,0.90
2018-06-21T09:24:26.081Z,0.97
2018-06-21T09:26:54.625Z,1.30
2018-06-21T09:29:23.050Z,1.10
2018-06-21T09:31:51.454Z,0.90
2018-06-21T09:34:20.369Z,1.10
2018-06-21T09:36:53.598Z,0.90
2018-06-21T09:39:27.595Z,1.10
2018-06-21T09:42:01.996Z,1.57
2018-06-21T09:44:34.530Z,1.20
2018-06-21T09:47:08.446Z,1.27
2018-06-21T09:49:37.829Z,1.20
2018-06-21T09:52:06.902Z,1.27
2018-06-21T09:54:37.630Z,1.30
2018-06-21T09:57:08.132Z,1.40
2018-06-21T09:59:36.799Z,1.53
2018-06-21T10:02:05.760Z,2.23
2018-06-21T10:04:34.869Z,3.20
2018-06-21T10:07:04.242Z,1.60
2018-06-21T10:09:33.207Z,2.20
2018-06-21T10:12:06.746Z,1.93
2018-06-21T10:14:36.109Z,1.57
2018-06-21T10:17:07.361Z,1.73
2018-06-21T10:19:36.402Z,1.77
2018-06-21T10:22:08.329Z,3.83
2018-06-21T10:24:36.904Z,1.93
2018-06-21T10:27:05.715Z,1.73
2018-06-21T10:29:34.509Z,1.83
2018-06-21T10:32:02.969Z,2.20
2018-06-21T10:34:31.381Z,2.17
2018-06-21T10:36:59.774Z,2.03
2018-06-21T10:39:28.209Z,1.40
2018-06-21T10:41:56.714Z,2.23
2018-06-21T10:44:25.139Z,2.97
2018-06-21T10:46:53.630Z,2.10
2018-06-21T10:49:22.053Z,1.40
2018-06-21T10:51:50.449Z,3.07
2018-06-21T10:54:18.961Z,1.40
2018-06-21T10:56:47.453Z,1.40
2018-06-21T10:59:15.861Z,1.50
2018-06-21T11:01:44.240Z,1.70
2018-06-21T11:04:12.662Z,1.47
2018-06-21T11:06:41.073Z,1.30
2018-06-21T11:09:09.797Z,1.60
2018-06-21T11:11:38.765Z,1.50
2018-06-21T11:14:07.217Z,1.93
2018-06-21T11:16:35.593Z,1.50
2018-06-21T11:19:04.006Z,1.23
2018-06-21T11:21:32.533Z,1.70
2018-06-21T11:24:00.935Z,1.30
2018-06-21T11:26:29.313Z,1.57
2018-06-21T11:28:57.790Z,2.00
2018-06-21T11:31:26.209Z,1.17
2018-06-21T11:33:54.752Z,2.07
2018-06-21T11:36:23.145Z,1.47
2018-06-21T11:38:51.557Z,1.40
2018-06-21T11:41:19.937Z,1.60
2018-06-21T11:43:48.341Z,1.53
2018-06-21T11:46:16.760Z,1.50
2018-06-21T11:48:45.165Z,1.53
2018-06-21T11:51:13.622Z,1.67
2018-06-21T11:53:42.015Z,1.40
2018-06-21T11:56:10.381Z,1.90
2018-06-21T11:58:38.981Z,2.40
2018-06-21T12:01:07.366Z,1.53
2018-06-21T12:03:35.721Z,1.57
2018-06-21T12:06:04.173Z,1.63
2018-06-21T12:08:32.571Z,1.60
2018-06-21T12:11:01.307Z,1.30
2018-06-21T12:13:30.159Z,1.77
2018-06-21T12:15:58.674Z,1.60
2018-06-21T12:18:27.124Z,1.40
2018-06-21T12:20:55.576Z,1.40
2018-06-21T12:23:24.001Z,1.60
2018-06-21T12:25:52.386Z,1.13
2018-06-21T12:28:20.773Z,1.50
2018-06-21T12:30:49.179Z,1.60
2018-06-21T12:33:17.631Z,1.40
2018-06-21T12:35:46.598Z,1.30
2018-06-21T12:38:15.033Z,1.47
2018-06-21T12:40:43.413Z,1.20
2018-06-21T12:43:11.828Z,1.60
2018-06-21T12:45:40.490Z,1.30
2018-06-21T12:48:09.017Z,1.73
2018-06-21T12:50:37.417Z,1.27
2018-06-21T12:53:05.804Z,1.47
2018-06-21T12:55:34.218Z,1.77
2018-06-21T12:58:02.665Z,1.30
2018-06-21T13:00:30.935Z,1.60
2018-06-21T13:02:59.337Z,1.90
2018-06-21T13:05:27.474Z,1.10
2018-06-21T13:07:55.910Z,1.60
2018-06-21T13:10:35.585Z,1.60
2018-06-21T13:13:13.013Z,1.60
2018-06-21T13:15:41.468Z,1.20
2018-06-21T13:18:09.875Z,1.70
2018-06-21T13:20:39.472Z,1.20
2018-06-21T13:23:07.982Z,1.33
2018-06-21T13:25:36.413Z,1.40
2018-06-21T13:28:05.356Z,1.50
2018-06-21T13:30:34.275Z,1.73
2018-06-21T13:33:02.773Z,1.10
2018-06-21T13:35:31.154Z,1.47
2018-06-21T13:37:59.600Z,1.50
2018-06-21T13:40:28.007Z,1.57
2018-06-21T13:42:56.393Z,1.20
2018-06-21T13:45:24.810Z,1.43
2018-06-21T13:47:53.266Z,1.40
2018-06-21T13:50:21.913Z,1.40
2018-06-21T13:52:50.427Z,1.43
2018-06-21T13:55:18.811Z,1.30
2018-06-21T13:57:47.208Z,1.40
2018-06-21T14:00:15.611Z,1.60
2018-06-21T14:02:44.072Z,1.30
2018-06-21T14:05:12.585Z,1.50
2018-06-21T14:07:41.086Z,1.40
2018-06-21T14:10:09.427Z,1.30
2018-06-21T14:12:38.110Z,1.60
2018-06-21T14:15:06.530Z,1.57
2018-06-21T14:17:35.159Z,1.73
2018-06-21T14:20:03.545Z,1.40
2018-06-21T14:22:31.995Z,1.70
2018-06-21T14:25:00.527Z,1.30
2018-06-21T14:27:28.964Z,1.80
2018-06-21T14:29:57.490Z,1.17
2018-06-21T14:32:25.861Z,1.50
2018-06-21T14:34:54.242Z,1.30
2018-06-21T14:37:22.367Z,1.47
2018-06-21T14:39:50.767Z,1.70
2018-06-21T14:42:18.950Z,1.50
2018-06-21T14:44:47.346Z,1.30
2018-06-21T14:47:15.761Z,1.50
2018-06-21T14:49:44.185Z,2.20
2018-06-21T14:52:12.573Z,1.60
2018-06-21T14:54:41.116Z,1.20
2018-06-21T14:57:09.575Z,1.27
2018-06-21T14:59:38.414Z,1.50
2018-06-21T15:02:06.875Z,1.53
2018-06-21T15:04:35.305Z,1.80
2018-06-21T15:07:03.852Z,1.37
2018-06-21T15:09:32.278Z,1.60
2018-06-21T15:12:00.730Z,1.37
2018-06-21T15:14:29.113Z,1.33
2018-06-21T15:16:57.498Z,1.20
2018-06-21T15:19:26.069Z,1.20
2018-06-21T15:21:54.447Z,1.30
2018-06-21T15:24:22.825Z,1.60
2018-06-21T15:26:51.197Z,1.60
2018-06-21T15:29:19.581Z,2.13
2018-06-21T15:31:47.993Z,1.30
2018-06-21T15:34:16.485Z,1.37
2018-06-21T15:36:45.194Z,1.20
2018-06-21T15:39:19.180Z,1.50
2018-06-21T15:41:47.626Z,1.20
2018-06-21T15:44:15.784Z,1.43
2018-06-21T15:46:44.318Z,1.60
2018-06-21T15:49:13.312Z,1.50
2018-06-21T15:51:41.878Z,1.33
2018-06-21T15:54:10.321Z,1.70
2018-06-21T15:56:39.156Z,1.37
2018-06-21T15:59:07.574Z,1.70
2018-06-21T16:01:36.177Z,1.43
2018-06-21T16:04:04.621Z,1.60
2018-06-21T16:06:33.382Z,1.40
2018-06-21T16:09:01.802Z,1.30
2018-06-21T16:11:30.272Z,1.53
2018-06-21T16:13:58.764Z,1.60
2018-06-21T16:16:27.157Z,1.60
2018-06-21T16:18:55.589Z,1.50
2018-06-21T16:21:24.011Z,1.50
2018-06-21T16:23:52.124Z,1.60
2018-06-21T16:26:20.622Z,1.57
2018-06-21T16:28:49.166Z,1.20
2018-06-21T16:31:17.621Z,1.53
2018-06-21T16:33:46.037Z,1.57
2018-06-21T16:36:14.432Z,1.37
2018-06-21T16:38:43.191Z,1.20
2018-06-21T16:41:11.589Z,1.20
2018-06-21T16:43:40.661Z,1.23
2018-06-21T16:46:09.034Z,1.60
2018-06-21T16:48:37.721Z,1.83
2018-06-21T16:51:06.263Z,1.40
2018-06-21T16:53:34.693Z,1.60
2018-06-21T16:56:03.066Z,1.50
2018-06-21T16:58:31.497Z,1.30
2018-06-21T17:00:59.910Z,1.50
2018-06-21T17:03:28.397Z,1.20
2018-06-21T17:05:56.909Z,1.50
2018-06-21T17:08:25.326Z,1.27
2018-06-21T17:10:53.842Z,1.23
2018-06-21T17:13:22.096Z,1.47
2018-06-21T17:15:50.579Z,1.43
2018-06-21T17:18:19.046Z,1.50
2018-06-21T17:20:47.437Z,1.60
2018-06-21T17:23:15.808Z,1.40
2018-06-21T17:25:44.209Z,1.30
2018-06-21T17:28:12.634Z,1.53
2018-06-21T17:30:41.265Z,1.40
2018-06-21T17:33:09.664Z,1.10
2018-06-21T17:35:38.177Z,1.30
2018-06-21T17:38:06.721Z,1.50
2018-06-21T17:40:34.860Z,1.40
2018-06-21T17:43:03.361Z,1.50
2018-06-21T17:45:31.813Z,1.27
2018-06-21T17:48:01.177Z,0.97
2018-06-21T17:50:29.604Z,1.43
2018-06-21T17:52:57.986Z,1.20
2018-06-21T17:55:26.399Z,1.30
2018-06-21T17:57:54.923Z,1.40
2018-06-21T18:00:23.238Z,1.40
2018-06-21T18:02:51.636Z,1.57
2018-06-21T18:05:20.035Z,1.20
2018-06-21T18:07:48.468Z,1.40
2018-06-21T18:10:16.898Z,1.17
2018-06-21T18:12:45.278Z,1.40
2018-06-21T18:15:13.678Z,1.30
2018-06-21T18:17:42.228Z,1.33
2018-06-21T18:20:10.610Z,1.40
2018-06-21T18:22:39.138Z,1.50
2018-06-21T18:25:07.641Z,1.43
2018-06-21T18:27:36.087Z,1.70
2018-06-21T18:30:04.567Z,1.33
2018-06-21T18:32:32.950Z,1.63
2018-06-21T18:35:01.142Z,1.43
2018-06-21T18:37:29.513Z,1.20
2018-06-21T18:39:57.939Z,1.40
2018-06-21T18:42:26.444Z,1.50
2018-06-21T18:44:54.833Z,1.47
2018-06-21T18:47:23.206Z,1.50
2018-06-21T18:49:51.592Z,1.53
2018-06-21T18:52:19.964Z,1.67
2018-06-21T18:54:48.533Z,1.60
2018-06-21T18:57:16.913Z,1.13
2018-06-21T18:59:45.328Z,1.50
2018-06-21T19:02:13.737Z,1.23
2018-06-21T19:04:42.319Z,1.50
2018-06-21T19:07:16.194Z,1.17
2018-06-21T19:09:50.153Z,1.30
2018-06-21T19:12:18.573Z,1.40
2018-06-21T19:14:46.957Z,1.37
2018-06-21T19:17:15.436Z,1.50
2018-06-21T19:19:43.533Z,1.20
2018-06-21T19:22:11.934Z,1.60
2018-06-21T19:24:40.294Z,1.50
2018-06-21T19:27:08.722Z,1.50
2018-06-21T19:29:37.198Z,1.20
2018-06-21T19:32:05.685Z,1.53
2018-06-21T19:34:34.117Z,1.30
2018-06-21T19:37:02.518Z,1.47
2018-06-21T19:39:30.881Z,1.23
2018-06-21T19:41:59.289Z,1.30
2018-06-21T19:44:27.761Z,1.33
2018-06-21T19:46:56.138Z,1.17
2018-06-21T19:49:24.518Z,1.17
2018-06-21T19:51:52.961Z,1.10
2018-06-21T19:54:21.394Z,1.33
2018-06-21T19:56:49.802Z,1.27
2018-06-21T19:59:18.204Z,1.10
2018-06-21T20:01:46.600Z,1.33
2018-06-21T20:04:15.102Z,1.50
2018-06-21T20:06:44.455Z,1.20
2018-06-21T20:09:14.220Z,1.37
2018-06-21T20:11:43.139Z,1.67
2018-06-21T20:14:11.702Z,1.43
2018-06-21T20:16:40.849Z,1.20
2018-06-21T20:19:17.647Z,1.47
2018-06-21T20:21:50.427Z,1.13
2018-06-21T20:24:22.196Z,1.70
2018-06-21T20:26:51.000Z,1.43
2018-06-21T20:29:21.737Z,0.90
2018-06-21T20:31:52.130Z,1.07
2018-06-21T20:34:21.051Z,1.00
2018-06-21T20:36:51.675Z,1.10
2018-06-21T20:39:22.672Z,1.30
2018-06-21T20:41:54.549Z,1.20
2018-06-21T20:44:24.739Z,3.00
2018-06-21T20:46:54.325Z,2.67
2018-06-21T20:49:24.055Z,2.23
2018-06-21T20:51:53.900Z,1.60
2018-06-21T20:54:25.347Z,1.17
2018-06-21T20:56:53.759Z,1.03
2018-06-21T20:59:22.311Z,2.07
2018-06-21T21:01:51.893Z,1.40
2018-06-21T21:04:21.251Z,1.47
2018-06-21T21:06:49.833Z,1.80
2018-06-21T21:09:20.830Z,1.67
2018-06-21T21:11:52.001Z,1.60
2018-06-21T21:14:20.436Z,1.30
2018-06-21T21:16:48.912Z,1.37
2018-06-21T21:19:17.764Z,1.47
2018-06-21T21:21:46.180Z,1.40
2018-06-21T21:24:14.615Z,1.17
2018-06-21T21:26:42.996Z,1.37
2018-06-21T21:29:11.521Z,1.60
2018-06-21T21:31:42.078Z,1.40
2018-06-21T21:34:13.257Z,1.20
2018-06-21T21:36:43.426Z,0.97
2018-06-21T21:39:11.972Z,1.33
2018-06-21T21:41:41.569Z,1.30
2018-06-21T21:44:11.408Z,1.33
2018-06-21T21:46:39.968Z,1.30
2018-06-21T21:49:08.649Z,1.20
2018-06-21T21:51:38.538Z,1.10
2018-06-21T21:54:09.145Z,0.90
2018-06-21T21:56:38.699Z,1.60
2018-06-21T21:59:07.486Z,1.30
2018-06-21T22:01:37.607Z,1.63
2018-06-21T22:04:09.233Z,1.13
2018-06-21T22:06:39.252Z,1.40
2018-06-21T22:09:11.083Z,1.17
2018-06-21T22:11:41.202Z,1.13
2018-06-21T22:14:09.807Z,1.20
2018-06-21T22:16:43.559Z,1.20
2018-06-21T22:19:12.030Z,1.27
2018-06-21T22:21:42.724Z,1.20
2018-06-21T22:24:13.954Z,1.07
2018-06-21T22:26:42.366Z,1.03
2018-06-21T22:29:10.760Z,1.27
2018-06-21T22:31:39.642Z,1.20
2018-06-21T22:34:10.109Z,1.30
2018-06-21T22:36:43.862Z,0.90
2018-06-21T22:39:13.729Z,1.07
2018-06-21T22:41:45.160Z,0.90
2018-06-21T22:44:14.423Z,2.70
2018-06-21T22:46:44.249Z,1.40
2018-06-21T22:49:14.207Z,1.30
2018-06-21T22:51:44.384Z,1.30
2018-06-21T22:54:16.833Z,0.90
2018-06-21T22:56:47.938Z,1.00
2018-06-21T22:59:18.985Z,1.67
2018-06-21T23:01:49.859Z,1.20
2018-06-21T23:04:20.382Z,1.30
2018-06-21T23:06:51.417Z,0.90
2018-06-21T23:09:21.629Z,1.10
2018-06-21T23:11:52.649Z,1.00
2018-06-21T23:14:22.975Z,1.20
2018-06-21T23:16:56.301Z,1.03
2018-06-21T23:19:30.388Z,1.20
2018-06-21T23:22:01.756Z,1.10
2018-06-21T23:24:32.687Z,1.17
2018-06-21T23:27:03.062Z,0.80
2018-06-21T23:29:33.946Z,1.30
2018-06-21T23:32:05.034Z,1.10
2018-06-21T23:34:35.849Z,1.40
2018-06-21T23:37:07.157Z,0.90
2018-06-21T23:39:38.118Z,1.17
2018-06-21T23:42:06.613Z,0.87
2018-06-21T23:44:35.029Z,1.10
2018-06-21T23:47:03.417Z,0.80
2018-06-21T23:49:31.804Z,0.90
2018-06-21T23:51:59.975Z,0.90
2018-06-21T23:54:28.393Z,0.90
2018-06-21T23:56:56.836Z,1.00
2018-06-21T23:59:25.241Z,1.03
